佐賀空港の過去48時間の天気

佐賀空港 (Saga)

現在時刻: 1/22 09:49 JST (1/22 00:49 UTC) 以下の時間は現地時間です。

過去48時間のMETAR気象情報
時間 風向 風速(m/s) 視程 気温(℃) 湿度(%) 気圧(hPa) 天気現象
22 09:00 2 10km以上 6 87 1026 弱い雨
22 08:00 北北西 1 10km以上 5 87 1026 弱い雨
22 07:00 静穏 0 10km以上 5 87 1026 弱い雨
22 06:00 北北東 2 10km以上 5 81 1026
21 23:00 北北西 2 10km以上 3 87 1027
21 22:00 北北西 2 10km以上 5 75 1027
21 21:00 北西 3 10km以上 4 81 1028
21 20:00 北北西 3 10km以上 7 66 1027
21 19:00 4 10km以上 7 76 1027
21 18:00 西北西 2 10km以上 9 62 1026
21 17:00 西 3 10km以上 11 54 1026
21 16:00 北北東 3 10km以上 12 41 1026
21 15:00 北東 3 10km以上 12 44 1026
21 14:00 北東 5 10km以上 11 50 1026
21 13:00 東北東 5 10km以上 12 47 1026
21 12:00 東北東 5 10km以上 10 58 1027
21 11:00 2 10km以上 9 71 1028
21 10:00 北北東 2 10km以上 6 81 1028
21 09:00 不定 1 10km以上 4 81 1028
21 08:00 東北東 2 10km以上 2 93 1027
21 07:00 北東 2 8000m 1 100 1026
21 06:00 不定 1 6000m 1 93 1025
20 23:00 西北西 3 10km以上 7 66 1024
20 22:00 西北西 2 10km以上 6 76 1023
20 21:00 2 10km以上 5 81 1023
20 20:00 西北西 3 10km以上 7 70 1022
20 19:00 西北西 4 10km以上 8 66 1022
20 18:00 西北西 4 10km以上 9 62 1021
20 17:00 西北西 5 10km以上 10 54 1020
20 16:00 北西 4 10km以上 10 58 1020
20 15:00 北西 5 10km以上 11 54 1020
20 14:00 西北西 4 10km以上 10 58 1020
20 13:00 北西 7 10km以上 11 54 1021
20 12:00 西北西 6 8000m 11 54 1021
20 11:00 北西 5 8000m 10 58 1022
20 10:00 北西 5 9000m 9 62 1022
RJFS 220000Z 01003KT 330V040 9999 -RA FEW030 SCT035 BKN070 06/04 Q1026
RJFS 212300Z 33002KT 9999 -RA FEW030 BKN035 05/03 Q1026
RJFS 212200Z 00000KT 9999 -RA FEW030 BKN035 BKN090 05/03 Q1026
RJFS 212100Z 03003KT 9999 FEW040 BKN090 05/02 Q1026
RJFS 211400Z 34004KT 9999 FEW050 SCT130 03/01 Q1027
RJFS 211300Z 33004KT 9999 FEW050 05/01 Q1027
RJFS 211200Z 32006KT 9999 FEW050 04/01 Q1028
RJFS 211100Z 33005KT CAVOK 07/01 Q1027
RJFS 211000Z 35007KT CAVOK 07/03 Q1027
RJFS 210900Z 30004KT CAVOK 09/02 Q1026
RJFS 210800Z 27005KT CAVOK 11/02 Q1026
RJFS 210700Z 03005KT 350V060 CAVOK 12/M01 Q1026
RJFS 210600Z 05005KT 360V110 9999 FEW050 12/M00 Q1026
RJFS 210500Z 04009KT 010V070 9999 FEW035 11/01 Q1026
RJFS 210400Z 06009KT 9999 FEW035 12/01 Q1026
RJFS 210300Z 06009KT 020V090 9999 FEW035 10/02 Q1027
RJFS 210200Z 09003KT 020V170 9999 FEW040 09/04 Q1028
RJFS 210100Z 02003KT 340V050 9999 FEW040 06/03 Q1028
RJFS 210000Z VRB01KT 9999 FEW040 04/01 Q1028
RJFS 202300Z 06004KT 9999 FEW040 02/01 Q1027
RJFS 202200Z 05004KT 8000 FEW040 01/01 Q1026
RJFS 202100Z VRB01KT 6000 FEW040 01/M00 Q1025
RJFS 201400Z 29006KT 9999 FEW040 07/01 Q1024
RJFS 201300Z 30004KT 9999 FEW040 06/02 Q1023
RJFS 201200Z 35003KT 290V060 9999 FEW040 SCT050 05/02 Q1023
RJFS 201100Z 30006KT 9999 FEW040 07/02 Q1022
RJFS 201000Z 29007KT 9999 FEW040 08/02 Q1022
RJFS 200900Z 30007KT 9999 FEW045 09/02 Q1021
RJFS 200800Z 29009KT 9999 SCT045 10/01 Q1020
RJFS 200700Z 31008KT 270V330 9999 FEW040 BKN050 10/02 Q1020
RJFS 200600Z 31009KT 270V350 9999 FEW040 11/02 Q1020
RJFS 200500Z 30007KT 260V360 9999 FEW040 BKN050 10/02 Q1020
RJFS 200400Z 31014KT 9999 FEW040 SCT050 11/02 Q1021
RJFS 200300Z 30012KT 8000 FEW040 BKN050 11/02 Q1021
RJFS 200200Z 31010KT 8000 FEW040 BKN050 10/02 Q1022
RJFS 200100Z 32009KT 9000 FEW040 BKN050 09/02 Q1022